Time;durP1;ratioP1;P1;durP2;ratioP2;P2;SDS_P1;SDS_P2;PMS_P1;PMS_P2;Temp;Humidity;BMP_temperature;BMP_pressure;BME280_temperature;BME280_humidity;BME280_pressure;Samples;Min_cycle;Max_cycle;Signal;HPM_P1;HPM_P2
2024/04/06 00:00:18;;;;;;;488.40;470.53;;;15.20;99.80;;;;;;5071545;28;20996;-64
2024/04/06 00:02:45;;;;;;;472.23;455.23;;;15.20;99.80;;;;;;5080622;28;20895;-64
2024/04/06 00:05:12;;;;;;;479.23;462.17;;;15.20;99.80;;;;;;5076734;28;20458;-64
2024/04/06 00:07:38;;;;;;;493.90;476.10;;;15.20;99.80;;;;;;5094495;28;20620;-64
2024/04/06 00:10:06;;;;;;;506.67;487.93;;;15.10;99.80;;;;;;5072805;28;20573;-64
2024/04/06 00:12:33;;;;;;;544.20;522.93;;;15.10;99.80;;;;;;5080469;28;20453;-64
2024/04/06 00:15:00;;;;;;;518.00;498.47;;;15.10;99.80;;;;;;5080648;28;20552;-64
2024/04/06 00:17:26;;;;;;;536.70;516.00;;;15.00;99.70;;;;;;5081540;28;21051;-63
2024/04/06 00:19:53;;;;;;;536.77;515.90;;;15.00;99.90;;;;;;5074968;28;20545;-64
2024/04/06 00:22:19;;;;;;;555.37;533.43;;;15.00;99.90;;;;;;5083794;28;20457;-64
2024/04/06 00:24:46;;;;;;;549.77;528.30;;;15.00;99.90;;;;;;5075098;28;20474;-63
2024/04/06 00:27:11;;;;;;;569.37;546.40;;;14.90;99.90;;;;;;5084276;28;20207;-64
2024/04/06 00:29:40;;;;;;;572.23;549.23;;;14.80;99.90;;;;;;5084614;28;20993;-64
2024/04/06 00:32:06;;;;;;;595.23;570.33;;;14.80;99.90;;;;;;5086424;28;20238;-64
2024/04/06 00:34:33;;;;;;;579.60;555.87;;;14.80;99.90;;;;;;5080102;28;20501;-64
2024/04/06 00:37:01;;;;;;;545.80;524.03;;;14.80;99.90;;;;;;5083407;28;20460;-64
2024/04/06 00:39:28;;;;;;;552.70;529.93;;;14.80;99.90;;;;;;5074633;28;20453;-64
2024/04/06 00:41:54;;;;;;;565.10;542.60;;;14.80;99.90;;;;;;5083457;28;20453;-64
2024/04/06 00:44:22;;;;;;;551.07;529.37;;;14.80;99.90;;;;;;5074946;28;20577;-64
2024/04/06 00:46:49;;;;;;;556.17;534.27;;;14.80;99.90;;;;;;5074703;28;21014;-64
2024/04/06 00:49:17;;;;;;;576.37;553.00;;;14.80;99.90;;;;;;5079044;28;20458;-64
2024/04/06 00:51:43;;;;;;;596.60;571.83;;;14.80;99.90;;;;;;5086774;28;20471;-64
2024/04/06 00:54:10;;;;;;;625.50;598.30;;;14.80;99.90;;;;;;5078061;28;20472;-64
2024/04/06 00:56:36;;;;;;;681.00;648.70;;;14.60;99.90;;;;;;5079305;28;20202;-64
2024/04/06 00:59:03;;;;;;;700.27;665.27;;;14.60;99.90;;;;;;5077005;28;20462;-63
2024/04/06 01:01:29;;;;;;;733.67;693.90;;;14.50;99.90;;;;;;5080269;28;20464;-65
2024/04/06 01:03:57;;;;;;;757.43;714.30;;;14.30;99.90;;;;;;5077738;28;20763;-64
2024/04/06 01:06:23;;;;;;;766.23;720.80;;;14.20;99.90;;;;;;5079549;28;20449;-64
2024/04/06 01:08:50;;;;;;;778.67;729.63;;;14.10;99.90;;;;;;5084539;28;20453;-64
2024/04/06 01:11:16;;;;;;;787.20;736.63;;;14.00;99.90;;;;;;5084031;28;20478;-64
2024/04/06 01:13:42;;;;;;;789.57;736.70;;;13.90;99.90;;;;;;5094621;28;20481;-64
2024/04/06 01:16:08;;;;;;;792.73;738.57;;;13.80;99.90;;;;;;5082800;28;20215;-64
2024/04/06 01:18:35;;;;;;;811.87;755.70;;;13.80;99.90;;;;;;5078082;28;20446;-64
2024/04/06 01:21:03;;;;;;;821.93;764.60;;;13.70;99.90;;;;;;5085697;28;20203;-64
2024/04/06 01:23:30;;;;;;;822.17;763.90;;;13.60;99.90;;;;;;5092157;28;20994;-65
2024/04/06 01:25:58;;;;;;;830.10;769.90;;;13.40;99.90;;;;;;5080886;28;20438;-64
2024/04/06 01:28:24;;;;;;;824.83;762.50;;;13.30;99.90;;;;;;5073646;28;20454;-64
2024/04/06 01:30:50;;;;;;;830.70;767.20;;;13.20;99.90;;;;;;5082731;28;20565;-64
2024/04/06 01:33:17;;;;;;;813.27;747.47;;;13.10;99.90;;;;;;5085467;28;20556;-64
2024/04/06 01:35:43;;;;;;;819.13;752.17;;;13.10;99.90;;;;;;5086940;28;20669;-62
2024/04/06 01:38:10;;;;;;;818.00;749.47;;;13.00;99.90;;;;;;5082505;28;20537;-64
2024/04/06 01:40:35;;;;;;;811.80;741.70;;;13.00;99.90;;;;;;5081090;28;20200;-64
2024/04/06 01:43:04;;;;;;;807.33;737.87;;;13.00;99.90;;;;;;5074655;28;20858;-64
2024/04/06 01:45:30;;;;;;;829.17;758.47;;;13.00;99.90;;;;;;5086628;28;20460;-64
2024/04/06 01:47:56;;;;;;;825.07;754.87;;;12.90;99.90;;;;;;5093353;28;20945;-64
2024/04/06 01:50:22;;;;;;;831.50;760.90;;;12.80;99.90;;;;;;5081333;28;20223;-64
2024/04/06 01:52:49;;;;;;;838.10;767.20;;;12.70;99.90;;;;;;5073612;28;20895;-64
2024/04/06 01:55:15;;;;;;;835.17;763.53;;;12.60;99.90;;;;;;5073565;28;20476;-64
2024/04/06 01:57:42;;;;;;;837.50;763.27;;;12.60;99.90;;;;;;5073572;28;20458;-64
2024/04/06 02:00:10;;;;;;;839.07;764.17;;;12.60;99.90;;;;;;5076736;28;20575;-64
2024/04/06 02:02:37;;;;;;;847.27;771.67;;;12.40;99.90;;;;;;5077808;28;20546;-64
2024/04/06 02:05:04;;;;;;;840.73;764.13;;;12.30;99.90;;;;;;5073083;28;20505;-64
2024/04/06 02:07:30;;;;;;;849.53;772.20;;;12.20;99.90;;;;;;5081893;28;20450;-64
2024/04/06 02:09:56;;;;;;;852.40;771.27;;;12.20;99.90;;;;;;5081923;28;20473;-64
2024/04/06 02:12:23;;;;;;;853.37;772.37;;;12.20;99.90;;;;;;5083436;28;20835;-64
2024/04/06 02:14:49;;;;;;;853.30;771.13;;;12.20;99.90;;;;;;5093300;28;20223;-64
2024/04/06 02:17:17;;;;;;;854.07;772.47;;;12.10;99.90;;;;;;5093437;28;20453;-64
2024/04/06 02:19:43;;;;;;;855.13;773.60;;;12.10;99.90;;;;;;5092718;28;20211;-63
2024/04/06 02:22:10;;;;;;;861.23;779.73;;;12.00;99.90;;;;;;5093505;28;20539;-64
2024/04/06 02:24:36;;;;;;;867.63;784.60;;;12.00;99.90;;;;;;5093291;28;20226;-64
2024/04/06 02:27:03;;;;;;;873.10;788.87;;;11.90;99.90;;;;;;5093324;28;20905;-64
2024/04/06 02:29:30;;;;;;;879.50;795.00;;;11.90;99.90;;;;;;5092818;28;20461;-64
2024/04/06 02:31:57;;;;;;;865.33;780.60;;;11.90;99.90;;;;;;5093618;28;20462;-63
2024/04/06 02:34:24;;;;;;;862.20;776.03;;;12.00;99.90;;;;;;5087544;28;20485;-64
2024/04/06 02:36:51;;;;;;;865.47;778.57;;;12.00;99.90;;;;;;5081742;28;20457;-64
2024/04/06 02:39:17;;;;;;;875.17;788.00;;;12.00;99.90;;;;;;5072574;28;20457;-64
2024/04/06 02:41:44;;;;;;;894.83;806.93;;;12.00;99.90;;;;;;5072748;28;20454;-63
2024/04/06 02:44:10;;;;;;;889.10;800.77;;;12.00;99.90;;;;;;5072734;28;20471;-64
2024/04/06 02:46:37;;;;;;;887.10;799.17;;;12.10;99.90;;;;;;5072502;28;20469;-64
2024/04/06 02:49:03;;;;;;;884.60;796.70;;;12.20;99.90;;;;;;5080500;28;20472;-64
2024/04/06 02:51:31;;;;;;;871.27;782.83;;;12.10;99.90;;;;;;5073060;28;20478;-63
2024/04/06 02:53:57;;;;;;;879.53;792.20;;;12.10;99.90;;;;;;5072631;28;20223;-64
2024/04/06 02:56:25;;;;;;;881.90;794.47;;;12.10;99.90;;;;;;5073941;28;20527;-64
2024/04/06 02:58:50;;;;;;;887.97;800.87;;;12.10;99.90;;;;;;5087062;28;20453;-64
2024/04/06 03:01:17;;;;;;;877.57;790.13;;;12.00;99.90;;;;;;5080393;28;20465;-63
2024/04/06 03:03:44;;;;;;;882.27;794.67;;;12.10;99.90;;;;;;5072514;28;20711;-63
2024/04/06 03:06:10;;;;;;;875.93;789.47;;;12.10;99.90;;;;;;5072676;28;20465;-64
2024/04/06 03:08:37;;;;;;;877.83;791.23;;;12.10;99.90;;;;;;5072362;28;20450;-64
2024/04/06 03:11:04;;;;;;;881.63;795.93;;;12.20;99.90;;;;;;5085248;28;20493;-64
2024/04/06 03:13:30;;;;;;;879.40;794.33;;;12.10;99.90;;;;;;5077295;28;20470;-63
2024/04/06 03:15:57;;;;;;;868.10;783.40;;;12.00;99.90;;;;;;5080812;28;21014;-64
2024/04/06 03:18:23;;;;;;;861.40;776.40;;;12.10;99.90;;;;;;5072322;28;20215;-64
2024/04/06 03:20:50;;;;;;;859.47;774.20;;;12.10;99.90;;;;;;5072446;28;20457;-64
2024/04/06 03:23:15;;;;;;;855.70;771.03;;;12.10;99.90;;;;;;5072264;28;20223;-64
2024/04/06 03:25:44;;;;;;;852.90;768.50;;;12.10;99.90;;;;;;5080488;28;20619;-64
2024/04/06 03:28:09;;;;;;;858.13;772.80;;;12.10;99.90;;;;;;5075916;28;20203;-63
2024/04/06 03:30:36;;;;;;;871.10;785.60;;;12.10;99.90;;;;;;5076267;28;20780;-64
2024/04/06 03:33:02;;;;;;;872.63;788.07;;;12.10;99.90;;;;;;5080458;28;20223;-63
2024/04/06 03:35:29;;;;;;;878.50;794.50;;;12.10;99.90;;;;;;5072228;28;20843;-64
2024/04/06 03:37:56;;;;;;;856.43;773.07;;;12.10;99.90;;;;;;5071953;28;20824;-64
2024/04/06 03:40:23;;;;;;;868.90;785.83;;;12.10;99.90;;;;;;5071484;28;20454;-64
2024/04/06 03:42:58;;;;;;;866.83;783.97;;;12.10;99.90;;;;;;5079886;28;20475;-64
2024/04/06 03:45:25;;;;;;;867.57;784.73;;;12.10;99.90;;;;;;5080077;28;20460;-64
2024/04/06 03:47:51;;;;;;;875.93;794.13;;;12.10;99.90;;;;;;5081176;28;20545;-64
2024/04/06 03:50:18;;;;;;;866.10;784.87;;;12.10;99.90;;;;;;5078347;28;20477;-63
2024/04/06 03:52:46;;;;;;;867.03;786.47;;;12.10;99.90;;;;;;5075589;28;20489;-64
2024/04/06 03:55:12;;;;;;;871.77;791.40;;;12.10;99.90;;;;;;5078237;28;20891;-63
2024/04/06 03:57:39;;;;;;;867.60;787.23;;;12.00;99.90;;;;;;5086990;28;20486;-63
2024/04/06 04:00:08;;;;;;;863.37;783.30;;;12.00;99.90;;;;;;5078581;28;20977;-64
2024/04/06 04:02:37;;;;;;;846.97;768.40;;;12.00;99.90;;;;;;5086476;28;20484;-64
2024/04/06 04:05:03;;;;;;;865.57;787.07;;;12.00;99.90;;;;;;5079218;28;20464;-64
2024/04/06 04:07:30;;;;;;;860.60;783.30;;;12.00;99.90;;;;;;5086852;28;20468;-64
2024/04/06 04:09:57;;;;;;;861.90;784.23;;;12.10;99.90;;;;;;5077834;28;20450;-64
2024/04/06 04:12:24;;;;;;;862.43;785.43;;;12.00;99.90;;;;;;5078618;28;20457;-64
2024/04/06 04:14:50;;;;;;;860.33;782.90;;;12.00;99.90;;;;;;5078194;28;20477;-64
2024/04/06 04:17:18;;;;;;;859.60;783.07;;;12.00;99.90;;;;;;5078191;28;20823;-64
2024/04/06 04:19:44;;;;;;;852.97;776.97;;;11.90;99.90;;;;;;5086313;28;20200;-64
2024/04/06 04:22:11;;;;;;;849.53;773.83;;;12.00;99.90;;;;;;5078199;28;20453;-64
2024/04/06 04:24:36;;;;;;;832.80;757.33;;;12.00;99.90;;;;;;5086597;28;20303;-63
2024/04/06 04:27:04;;;;;;;832.03;756.67;;;11.90;99.90;;;;;;5086757;28;20552;-63
2024/04/06 04:29:30;;;;;;;837.80;762.70;;;11.90;99.90;;;;;;5078040;28;20292;-64
2024/04/06 04:31:56;;;;;;;846.70;771.13;;;12.00;99.90;;;;;;5078565;28;20520;-64
2024/04/06 04:34:24;;;;;;;844.67;769.30;;;11.90;99.90;;;;;;5083591;28;20508;-63
2024/04/06 04:36:50;;;;;;;842.10;767.17;;;11.90;99.90;;;;;;5080547;28;20207;-64
2024/04/06 04:39:18;;;;;;;842.07;765.17;;;11.90;99.90;;;;;;5082330;28;20541;-64
2024/04/06 04:41:44;;;;;;;847.73;770.73;;;11.90;99.90;;;;;;5081772;28;20453;-63
2024/04/06 04:44:11;;;;;;;874.07;796.33;;;11.90;99.90;;;;;;5081636;28;21012;-63
2024/04/06 04:46:37;;;;;;;877.23;798.53;;;11.90;99.90;;;;;;5089892;28;20195;-64
2024/04/06 04:49:04;;;;;;;851.27;772.57;;;12.00;99.90;;;;;;5078197;28;20983;-64
2024/04/06 04:51:31;;;;;;;845.77;767.97;;;11.90;99.90;;;;;;5077953;28;20482;-64
2024/04/06 04:53:57;;;;;;;845.63;767.93;;;11.90;99.90;;;;;;5086387;28;20485;-64
2024/04/06 04:56:23;;;;;;;837.70;761.73;;;12.00;99.90;;;;;;5086365;28;20486;-63
2024/04/06 04:58:50;;;;;;;843.67;768.20;;;12.00;99.90;;;;;;5086684;28;20453;-64
2024/04/06 05:01:16;;;;;;;839.23;764.27;;;11.90;99.90;;;;;;5089358;28;20827;-64
2024/04/06 05:03:43;;;;;;;844.53;769.70;;;11.80;99.90;;;;;;5078726;28;20491;-64
2024/04/06 05:06:09;;;;;;;833.47;759.63;;;11.90;99.90;;;;;;5074559;28;20524;-63
2024/04/06 05:08:37;;;;;;;824.60;750.40;;;11.80;99.90;;;;;;5074822;28;20981;-63
2024/04/06 05:11:03;;;;;;;825.23;749.87;;;11.80;99.90;;;;;;5074168;28;21613;-64
2024/04/06 05:13:30;;;;;;;827.23;750.67;;;11.70;99.90;;;;;;5082877;28;20474;-64
2024/04/06 05:15:57;;;;;;;814.13;737.70;;;11.80;99.90;;;;;;5074257;28;20457;-64
2024/04/06 05:18:24;;;;;;;809.63;733.50;;;11.90;99.90;;;;;;5074402;28;20528;-64
2024/04/06 05:20:50;;;;;;;799.43;725.33;;;12.00;99.90;;;;;;5073694;28;20537;-63
2024/04/06 05:23:17;;;;;;;796.53;724.70;;;12.10;99.90;;;;;;5074379;28;20482;-64
2024/04/06 05:25:46;;;;;;;813.30;740.70;;;12.20;99.90;;;;;;5082252;28;20461;-63
2024/04/06 05:28:13;;;;;;;803.40;732.20;;;12.20;99.90;;;;;;5080523;28;20975;-64
2024/04/06 05:30:39;;;;;;;807.03;736.43;;;12.30;99.90;;;;;;5079316;28;20562;-63
2024/04/06 05:33:06;;;;;;;805.43;736.67;;;12.40;99.90;;;;;;5077667;28;20470;-66
2024/04/06 05:35:32;;;;;;;807.37;738.77;;;12.30;99.90;;;;;;5077784;28;20197;-63
2024/04/06 05:37:59;;;;;;;796.33;729.53;;;12.40;99.90;;;;;;5079392;28;20449;-64
2024/04/06 05:40:25;;;;;;;800.73;734.27;;;12.40;99.90;;;;;;5082045;28;20283;-64
2024/04/06 05:42:53;;;;;;;803.20;737.10;;;12.40;99.90;;;;;;5076182;28;20557;-64
2024/04/06 05:45:19;;;;;;;798.23;733.13;;;12.50;99.90;;;;;;5073897;28;20200;-64
2024/04/06 05:47:45;;;;;;;787.40;723.93;;;12.50;99.90;;;;;;5081689;28;20453;-63
2024/04/06 05:50:11;;;;;;;790.43;728.13;;;12.60;99.90;;;;;;5081567;28;20204;-64
2024/04/06 05:52:38;;;;;;;780.57;720.27;;;12.70;99.90;;;;;;5073858;28;20465;-64
2024/04/06 05:55:06;;;;;;;772.17;713.37;;;12.80;99.90;;;;;;5073417;28;20274;-64
2024/04/06 05:57:33;;;;;;;765.60;707.93;;;12.80;99.90;;;;;;5073663;28;20458;-66
2024/04/06 06:00:00;;;;;;;764.17;707.27;;;12.90;99.90;;;;;;5073185;28;20461;-65
2024/04/06 06:02:27;;;;;;;748.17;691.97;;;12.90;99.90;;;;;;5073248;28;20531;-64
2024/04/06 06:04:53;;;;;;;749.63;694.87;;;12.90;99.90;;;;;;5081942;28;20449;-64
2024/04/06 06:07:21;;;;;;;741.67;688.17;;;12.90;99.90;;;;;;5073685;28;20482;-64
2024/04/06 06:09:47;;;;;;;750.27;697.57;;;13.00;99.90;;;;;;5072954;28;20829;-64
2024/04/06 06:12:14;;;;;;;745.17;693.07;;;13.00;99.90;;;;;;5077345;28;20473;-64
2024/04/06 06:14:40;;;;;;;743.93;692.53;;;13.10;99.90;;;;;;5076683;28;20273;-66
2024/04/06 06:17:08;;;;;;;733.83;683.23;;;13.20;99.90;;;;;;5083894;28;20449;-64
2024/04/06 06:19:34;;;;;;;743.77;694.27;;;13.30;99.90;;;;;;5077517;28;20286;-62
2024/04/06 06:22:01;;;;;;;728.53;680.83;;;13.30;99.90;;;;;;5080795;28;20544;-64
2024/04/06 06:24:27;;;;;;;714.93;668.60;;;13.30;99.90;;;;;;5085431;28;20465;-64
2024/04/06 06:26:54;;;;;;;705.60;661.20;;;13.30;99.90;;;;;;5083294;28;20902;-64
2024/04/06 06:29:19;;;;;;;701.47;656.87;;;13.30;99.90;;;;;;5072891;28;20528;-64
2024/04/06 06:31:46;;;;;;;698.50;653.70;;;13.30;99.90;;;;;;5081050;28;20517;-64
2024/04/06 06:34:13;;;;;;;693.93;650.53;;;13.20;99.90;;;;;;5072910;28;20310;-64
2024/04/06 06:36:40;;;;;;;705.90;659.43;;;13.30;99.90;;;;;;5072884;28;20458;-64
2024/04/06 06:39:06;;;;;;;692.63;647.87;;;13.30;99.90;;;;;;5072597;28;20480;-64
2024/04/06 06:41:33;;;;;;;712.33;668.37;;;13.50;99.90;;;;;;5079599;28;20521;-64
2024/04/06 06:43:59;;;;;;;701.80;659.17;;;13.60;99.90;;;;;;5073909;28;20228;-64
2024/04/06 06:46:26;;;;;;;694.70;654.20;;;13.70;99.90;;;;;;5078363;28;20453;-64
2024/04/06 06:48:51;;;;;;;693.23;654.20;;;13.80;99.90;;;;;;5075068;28;20204;-64
2024/04/06 06:51:19;;;;;;;672.80;635.90;;;13.90;99.90;;;;;;5080674;28;20489;-64
2024/04/06 06:53:45;;;;;;;651.57;618.63;;;14.10;99.90;;;;;;5072474;28;20593;-66
2024/04/06 06:56:12;;;;;;;622.93;594.23;;;14.10;99.90;;;;;;5072459;28;20465;-66
2024/04/06 06:58:38;;;;;;;610.13;582.97;;;14.30;99.90;;;;;;5080634;28;20199;-64
2024/04/06 07:01:05;;;;;;;560.00;537.60;;;14.40;99.90;;;;;;5071465;28;20819;-62
2024/04/06 07:03:31;;;;;;;560.53;537.93;;;14.50;99.90;;;;;;5074233;28;20303;-64
2024/04/06 07:05:57;;;;;;;449.77;433.80;;;14.60;99.90;;;;;;5080160;28;20553;-64
2024/04/06 07:08:25;;;;;;;420.53;406.23;;;14.80;99.90;;;;;;5076683;28;20294;-64
2024/04/06 07:10:51;;;;;;;411.30;397.10;;;14.90;99.90;;;;;;5074101;28;20978;-63
2024/04/06 07:13:17;;;;;;;390.40;377.33;;;15.00;99.90;;;;;;5075975;28;20484;-63
2024/04/06 07:15:44;;;;;;;357.87;346.03;;;15.30;99.90;;;;;;5078002;28;20450;-64
2024/04/06 07:18:10;;;;;;;301.13;291.53;;;15.30;99.90;;;;;;5074389;28;20196;-64
2024/04/06 07:20:36;;;;;;;241.83;234.00;;;15.40;99.90;;;;;;5073186;28;20480;-63
2024/04/06 07:23:03;;;;;;;185.73;179.50;;;15.50;99.90;;;;;;5078395;28;20231;-64
2024/04/06 07:25:31;;;;;;;178.37;172.33;;;15.50;99.90;;;;;;5085439;28;20456;-64
2024/04/06 07:27:57;;;;;;;240.43;233.03;;;15.50;99.90;;;;;;5074428;28;20949;-64
2024/04/06 07:30:24;;;;;;;230.00;222.37;;;15.60;99.90;;;;;;5082221;28;20460;-64
2024/04/06 07:32:49;;;;;;;139.83;134.50;;;15.60;99.90;;;;;;5082938;28;20211;-64
2024/04/06 07:35:16;;;;;;;103.90;100.23;;;15.70;99.90;;;;;;5080056;28;20462;-64
2024/04/06 07:37:42;;;;;;;94.80;91.40;;;15.80;99.90;;;;;;5071942;28;20222;-64
2024/04/06 07:40:10;;;;;;;64.67;62.10;;;15.90;99.90;;;;;;5079772;28;20545;-64
2024/04/06 07:42:37;;;;;;;41.17;38.93;;;16.00;99.90;;;;;;5071543;28;20200;-64
2024/04/06 07:45:05;;;;;;;47.70;45.60;;;16.10;99.90;;;;;;5073708;28;20582;-64
2024/04/06 07:47:30;;;;;;;18.73;17.53;;;16.20;99.90;;;;;;5082195;28;20515;-64
2024/04/06 07:49:57;;;;;;;15.30;14.27;;;16.30;99.90;;;;;;5081832;28;20466;-64
2024/04/06 07:52:23;;;;;;;17.33;15.83;;;16.50;99.90;;;;;;5072117;28;20223;-64
2024/04/06 07:54:50;;;;;;;10.17;9.17;;;16.60;99.90;;;;;;5071737;28;20895;-64
2024/04/06 07:57:16;;;;;;;7.60;6.87;;;16.80;95.70;;;;;;5076136;28;20278;-64
2024/04/06 07:59:44;;;;;;;7.10;5.97;;;16.90;93.80;;;;;;5075122;28;20458;-64
2024/04/06 08:02:10;;;;;;;5.37;3.73;;;17.30;94.00;;;;;;5078454;28;20957;-64
2024/04/06 08:04:38;;;;;;;6.73;3.50;;;17.50;93.90;;;;;;5080099;28;21085;-64
2024/04/06 08:07:05;;;;;;;7.67;3.10;;;17.80;84.10;;;;;;5081926;28;20446;-64
2024/04/06 08:09:32;;;;;;;7.67;2.83;;;18.00;84.20;;;;;;5070608;28;20450;-64
2024/04/06 08:11:57;;;;;;;6.93;3.20;;;18.30;79.30;;;;;;5071232;28;20851;-64
2024/04/06 08:14:24;;;;;;;10.07;2.30;;;18.50;68.70;;;;;;5073231;28;20470;-63
2024/04/06 08:16:52;;;;;;;5.67;1.90;;;18.70;68.90;;;;;;5073279;28;20198;-64
2024/04/06 08:19:18;;;;;;;5.00;1.93;;;19.00;69.00;;;;;;5078398;28;20515;-63
2024/04/06 08:21:45;;;;;;;6.90;2.67;;;19.10;60.00;;;;;;5072417;28;20451;-64
2024/04/06 08:24:12;;;;;;;6.30;2.17;;;19.20;54.70;;;;;;5077532;28;20465;-64
2024/04/06 08:26:38;;;;;;;4.83;1.60;;;19.40;52.60;;;;;;5082767;28;20461;-64
2024/04/06 08:29:05;;;;;;;6.10;2.23;;;19.40;47.00;;;;;;5072405;28;20458;-63
2024/04/06 08:31:30;;;;;;;6.00;2.33;;;19.40;34.80;;;;;;5078217;28;20298;-63
2024/04/06 08:33:59;;;;;;;8.73;1.80;;;19.50;43.50;;;;;;5084232;28;21032;-65
2024/04/06 08:36:24;;;;;;;6.82;1.88;;;19.60;44.00;;;;;;5071341;28;20834;-64
2024/04/06 08:38:51;;;;;;;5.30;1.63;;;19.70;35.10;;;;;;5075159;28;20189;-64
2024/04/06 08:41:18;;;;;;;8.80;2.10;;;19.80;35.10;;;;;;5080033;28;20196;-64
2024/04/06 08:43:45;;;;;;;7.90;1.67;;;19.90;35.20;;;;;;5078308;28;20527;-64
2024/04/06 08:46:11;;;;;;;7.20;1.47;;;20.20;35.50;;;;;;5075071;28;20477;-64
2024/04/06 08:48:38;;;;;;;5.10;1.60;;;20.20;35.50;;;;;;5075020;28;20953;-64
2024/04/06 08:51:06;;;;;;;8.03;1.80;;;20.50;35.80;;;;;;5082946;28;20478;-63
2024/04/06 08:53:33;;;;;;;7.73;2.10;;;20.50;27.20;;;;;;5074868;28;21023;-64
2024/04/06 08:56:04;;;;;;;5.70;1.87;;;20.90;27.40;;;;;;5083087;28;20454;-64
2024/04/06 08:58:31;;;;;;;5.70;1.67;;;20.80;26.80;;;;;;5083362;28;20465;-63
2024/04/06 09:00:58;;;;;;;6.40;1.87;;;20.80;26.10;;;;;;5074365;28;20450;-64
2024/04/06 09:03:25;;;;;;;8.20;1.77;;;20.90;20.30;;;;;;5074635;28;20500;-64
2024/04/06 09:05:51;;;;;;;6.10;1.63;;;21.00;20.40;;;;;;5082750;28;20540;-63
2024/04/06 09:08:19;;;;;;;5.40;1.83;;;20.90;20.30;;;;;;5074647;28;20907;-63
2024/04/06 09:10:46;;;;;;;8.30;2.07;;;20.90;12.90;;;;;;5074465;28;20588;-64
2024/04/06 09:13:13;;;;;;;9.00;1.97;;;20.90;14.90;;;;;;5082726;28;20888;-64
2024/04/06 09:15:39;;;;;;;7.10;1.50;;;21.00;19.90;;;;;;5082856;28;20533;-64
2024/04/06 09:18:06;;;;;;;6.07;1.50;;;21.10;19.50;;;;;;5074287;28;20542;-63
2024/04/06 09:20:31;;;;;;;5.30;1.40;;;21.30;13.20;;;;;;5081068;28;20448;-64
2024/04/06 09:23:00;;;;;;;6.27;2.47;;;21.40;5.70;;;;;;5075832;28;20466;-64
2024/04/06 09:25:27;;;;;;;7.90;1.70;;;21.80;21.00;;;;;;5074445;28;20200;-64
2024/04/06 09:27:53;;;;;;;5.93;2.13;;;22.20;7.90;;;;;;5082557;28;20458;-64
2024/04/06 09:30:29;;;;;;;4.90;1.30;;;22.40;11.20;;;;;;5082101;28;20461;-64
2024/04/06 09:32:57;;;;;;;5.97;1.80;;;22.70;6.50;;;;;;5083863;28;20481;-63
2024/04/06 09:35:24;;;;;;;4.87;1.30;;;22.80;1.00;;;;;;5080510;28;20950;-64
2024/04/06 09:37:52;;;;;;;5.53;1.33;;;22.80;1.00;;;;;;5075171;28;20454;-64
2024/04/06 09:40:19;;;;;;;4.83;1.30;;;23.10;1.00;;;;;;5086077;28;20458;-64
2024/04/06 09:42:48;;;;;;;4.40;1.17;;;23.00;1.00;;;;;;5077102;28;20457;-64
2024/04/06 09:45:16;;;;;;;5.30;1.37;;;23.00;1.00;;;;;;5074004;28;21011;-64
2024/04/06 09:47:43;;;;;;;5.37;1.63;;;22.80;1.00;;;;;;5082277;28;20519;-63
2024/04/06 09:50:11;;;;;;;4.57;1.23;;;22.80;1.00;;;;;;5076648;28;20449;-64
2024/04/06 09:52:37;;;;;;;6.27;1.60;;;22.80;1.00;;;;;;5078469;28;20493;-63
2024/04/06 09:55:05;;;;;;;5.83;1.20;;;22.90;1.00;;;;;;5073801;28;20493;-64
2024/04/06 09:57:32;;;;;;;5.37;1.60;;;22.90;1.00;;;;;;5082036;28;20477;-64
2024/04/06 10:00:06;;;;;;;5.67;1.40;;;22.90;1.00;;;;;;5081367;28;20460;-64
2024/04/06 10:02:33;;;;;;;4.67;1.10;;;23.40;1.00;;;;;;5080526;28;20457;-64
2024/04/06 10:05:05;;;;;;;6.93;1.60;;;23.50;1.00;;;;;;5083242;28;20464;-64
2024/04/06 10:07:32;;;;;;;5.00;1.30;;;23.60;1.00;;;;;;5073577;28;20549;-64
2024/04/06 10:10:01;;;;;;;6.07;1.63;;;23.60;1.00;;;;;;5073065;28;20549;-64
2024/04/06 10:12:37;;;;;;;6.83;1.60;;;23.80;1.00;;;;;;5081567;28;20485;-63
2024/04/06 10:15:08;;;;;;;8.40;1.80;;;23.90;1.00;;;;;;5073246;28;20950;-64
2024/04/06 10:17:42;;;;;;;5.80;1.43;;;24.20;1.00;;;;;;5073407;28;20454;-64
2024/04/06 10:20:10;;;;;;;5.10;1.67;;;24.40;1.00;;;;;;5072992;28;20546;-63
2024/04/06 10:22:43;;;;;;;6.40;1.43;;;23.90;1.00;;;;;;5080591;28;20450;-64
2024/04/06 10:25:11;;;;;;;4.80;1.50;;;23.80;1.00;;;;;;5073042;28;20458;-64
2024/04/06 10:27:38;;;;;;;5.70;1.37;;;24.20;1.00;;;;;;5073458;28;20504;-64
2024/04/06 10:30:08;;;;;;;5.03;1.20;;;24.80;1.00;;;;;;5072656;28;20497;-64
2024/04/06 10:32:34;;;;;;;6.73;1.80;;;25.10;1.00;;;;;;5079891;28;20473;-64
2024/04/06 10:35:01;;;;;;;6.40;1.40;;;25.30;1.00;;;;;;5076267;28;20450;-63
2024/04/06 10:37:27;;;;;;;5.37;1.40;;;25.60;1.00;;;;;;5078367;28;20838;-64
2024/04/06 10:39:54;;;;;;;8.10;1.40;;;25.70;1.00;;;;;;5072516;28;20459;-64
2024/04/06 10:42:25;;;;;;;5.93;1.53;;;25.80;1.00;;;;;;5072926;28;20196;-64
2024/04/06 10:44:52;;;;;;;6.40;1.43;;;26.20;1.00;;;;;;5082169;28;20540;-63
2024/04/06 10:47:19;;;;;;;6.60;1.57;;;26.20;1.00;;;;;;5084737;28;20452;-64
2024/04/06 10:49:47;;;;;;;6.10;1.83;;;26.10;1.00;;;;;;5075661;28;20464;-63
2024/04/06 10:52:13;;;;;;;4.40;1.07;;;26.30;1.00;;;;;;5076509;28;20485;-64
2024/04/06 10:54:40;;;;;;;5.77;1.33;;;26.50;1.00;;;;;;5084415;28;20503;-64
2024/04/06 10:57:06;;;;;;;11.90;1.40;;;26.40;1.00;;;;;;5072931;28;20219;-64
2024/04/06 10:59:33;;;;;;;9.50;1.40;;;26.50;1.00;;;;;;5078908;28;20506;-64
2024/04/06 11:01:58;;;;;;;6.37;1.57;;;26.90;1.00;;;;;;5072836;28;20453;-64
2024/04/06 11:04:27;;;;;;;5.17;1.30;;;27.20;1.00;;;;;;5078072;28;20477;-64
2024/04/06 11:06:52;;;;;;;4.53;1.00;;;27.10;1.00;;;;;;5074713;28;20208;-64
2024/04/06 11:09:19;;;;;;;7.60;1.43;;;26.90;1.00;;;;;;5071932;28;20468;-64
2024/04/06 11:11:46;;;;;;;5.80;1.40;;;26.80;1.00;;;;;;5072206;28;20575;-63
2024/04/06 11:14:12;;;;;;;5.40;1.13;;;26.60;1.00;;;;;;5080623;28;20470;-64
2024/04/06 11:16:41;;;;;;;5.90;1.40;;;26.70;1.00;;;;;;5072163;28;20454;-64
2024/04/06 11:19:08;;;;;;;5.45;1.50;;;26.60;1.00;;;;;;5071442;28;20472;-64
2024/04/06 11:21:35;;;;;;;5.90;1.25;;;26.90;1.00;;;;;;5078390;28;20931;-66
2024/04/06 11:24:02;;;;;;;8.63;1.73;;;26.90;1.00;;;;;;5083712;28;20710;-65
2024/04/06 11:26:29;;;;;;;6.03;1.50;;;27.20;1.00;;;;;;5091995;28;20454;-66
2024/04/06 11:28:55;;;;;;;6.40;1.20;;;27.20;1.00;;;;;;5095952;28;20459;-65
2024/04/06 11:31:21;;;;;;;6.30;1.40;;;26.80;1.00;;;;;;5079014;28;20453;-65
2024/04/06 11:33:48;;;;;;;4.70;1.33;;;26.40;1.00;;;;;;5075834;28;20478;-65
2024/04/06 11:36:14;;;;;;;6.83;1.77;;;26.30;1.00;;;;;;5085020;28;20222;-66
2024/04/06 11:38:42;;;;;;;5.87;1.67;;;26.20;1.00;;;;;;5081726;28;20450;-65
2024/04/06 11:41:08;;;;;;;4.40;1.10;;;26.20;1.00;;;;;;5081711;28;20202;-65
2024/04/06 11:43:35;;;;;;;10.73;2.20;;;26.40;1.00;;;;;;5073074;28;20465;-66
2024/04/06 11:46:01;;;;;;;13.93;3.30;;;26.60;1.00;;;;;;5071989;28;20199;-66
2024/04/06 11:48:27;;;;;;;6.60;1.60;;;26.50;1.00;;;;;;5078719;28;20479;-66
2024/04/06 11:50:53;;;;;;;4.27;1.10;;;26.50;1.00;;;;;;5094581;28;20194;-66
2024/04/06 11:53:20;;;;;;;5.27;1.23;;;26.60;1.00;;;;;;5076804;28;21014;-66
2024/04/06 11:55:48;;;;;;;6.07;1.20;;;26.60;1.00;;;;;;5075909;28;20196;-65
2024/04/06 11:58:15;;;;;;;5.87;1.20;;;26.50;1.00;;;;;;5085304;28;20453;-66
2024/04/06 12:00:41;;;;;;;4.93;1.03;;;26.60;1.00;;;;;;5078777;28;20522;-66
2024/04/06 12:03:08;;;;;;;6.70;1.10;;;26.60;1.00;;;;;;5082941;28;20466;-66
2024/04/06 12:05:34;;;;;;;5.53;1.03;;;26.60;1.00;;;;;;5085946;28;20199;-66
2024/04/06 12:08:02;;;;;;;8.20;1.50;;;26.90;1.00;;;;;;5077945;28;20450;-66
2024/04/06 12:10:27;;;;;;;6.43;1.40;;;27.10;1.00;;;;;;5083045;28;20199;-66
2024/04/06 12:12:55;;;;;;;5.60;1.30;;;27.40;1.00;;;;;;5086462;28;20449;-66
2024/04/06 12:15:23;;;;;;;4.70;1.20;;;27.50;1.00;;;;;;5084825;28;20834;-66
2024/04/06 12:17:49;;;;;;;5.00;1.30;;;27.60;1.00;;;;;;5080562;28;20563;-67
2024/04/06 12:20:15;;;;;;;5.90;1.20;;;27.70;1.00;;;;;;5079894;28;20450;-65